createdAt,value
2022-12-11T00:01:45.905Z,3.35
2022-12-11T00:04:19.063Z,3.40
2022-12-11T00:06:45.733Z,3.23
2022-12-11T00:09:17.649Z,3.22
2022-12-11T00:11:44.853Z,3.09
2022-12-11T00:14:14.071Z,3.12
2022-12-11T00:16:43.648Z,3.15
2022-12-11T00:19:10.547Z,3.15
2022-12-11T00:21:39.481Z,3.16
2022-12-11T00:24:08.884Z,3.05
2022-12-11T00:26:35.487Z,3.07
2022-12-11T00:29:04.790Z,3.05
2022-12-11T00:35:18.556Z,2.92
2022-12-11T00:37:45.165Z,3.00
2022-12-11T00:40:11.927Z,2.86
2022-12-11T00:42:54.411Z,2.75
2022-12-11T00:45:23.607Z,2.81
2022-12-11T00:47:50.640Z,2.88
2022-12-11T00:50:17.194Z,2.78
2022-12-11T00:52:46.056Z,2.73
2022-12-11T00:55:15.172Z,2.83
2022-12-11T00:57:47.297Z,2.74
2022-12-11T01:00:14.696Z,2.69
2022-12-11T01:02:43.706Z,2.86
2022-12-11T01:05:11.526Z,2.76
2022-12-11T01:07:40.568Z,2.83
2022-12-11T01:10:25.473Z,2.92
2022-12-11T01:13:04.537Z,2.77
2022-12-11T01:15:36.452Z,2.77
2022-12-11T01:18:06.590Z,2.77
2022-12-11T01:20:37.410Z,2.80
2022-12-11T01:23:12.829Z,2.77
2022-12-11T01:25:46.308Z,2.71
2022-12-11T01:28:15.291Z,2.66
2022-12-11T01:30:43.692Z,2.68
2022-12-11T01:33:12.990Z,2.69
2022-12-11T01:35:40.562Z,2.62
2022-12-11T01:38:07.358Z,2.68
2022-12-11T01:40:38.707Z,2.51
2022-12-11T01:43:05.473Z,2.58
2022-12-11T01:45:42.035Z,2.64
2022-12-11T01:48:10.538Z,2.72
2022-12-11T01:50:44.147Z,2.59
2022-12-11T01:53:17.782Z,2.66
2022-12-11T01:55:51.475Z,2.66
2022-12-11T01:58:20.481Z,2.68
2022-12-11T02:00:49.565Z,2.65
2022-12-11T02:03:16.573Z,2.61
2022-12-11T02:05:43.254Z,2.57
2022-12-11T02:08:10.282Z,2.46
2022-12-11T02:11:16.145Z,2.40
2022-12-11T02:14:08.592Z,2.38
2022-12-11T02:16:35.079Z,2.16
2022-12-11T02:19:11.478Z,2.05
2022-12-11T02:21:46.145Z,1.90
2022-12-11T02:24:27.883Z,1.98
2022-12-11T02:26:54.299Z,1.86
2022-12-11T02:29:37.126Z,1.96
2022-12-11T02:32:12.730Z,1.79
2022-12-11T02:34:46.091Z,1.96
2022-12-11T02:37:20.318Z,1.86
2022-12-11T02:39:52.633Z,1.81
2022-12-11T02:42:21.601Z,1.82
2022-12-11T02:44:53.223Z,1.86
2022-12-11T02:47:21.275Z,1.80
2022-12-11T02:49:51.103Z,1.70
2022-12-11T02:52:22.365Z,1.63
2022-12-11T02:54:53.786Z,1.58
2022-12-11T02:57:38.531Z,1.61
2022-12-11T03:00:08.425Z,1.50
2022-12-11T03:02:38.540Z,1.59
2022-12-11T03:05:09.273Z,1.40
2022-12-11T03:07:41.805Z,1.45
2022-12-11T03:10:14.758Z,1.50
2022-12-11T03:12:46.126Z,1.37
2022-12-11T03:15:20.455Z,1.37
2022-12-11T03:17:46.990Z,1.37
2022-12-11T03:20:42.942Z,1.22
2022-12-11T03:23:21.863Z,1.33
2022-12-11T03:26:01.935Z,1.40
2022-12-11T03:28:37.738Z,1.25
2022-12-11T03:31:11.483Z,1.24
2022-12-11T03:33:42.051Z,1.25
2022-12-11T03:36:20.355Z,1.17
2022-12-11T03:39:05.992Z,1.25
2022-12-11T03:41:36.146Z,1.20
2022-12-11T03:44:05.141Z,1.28
2022-12-11T03:46:37.071Z,1.15
2022-12-11T03:49:09.413Z,1.24
2022-12-11T03:51:36.851Z,1.29
2022-12-11T03:54:05.896Z,1.17
2022-12-11T03:56:35.911Z,1.15
2022-12-11T03:59:02.475Z,1.10
2022-12-11T04:01:29.045Z,1.14
2022-12-11T04:03:55.831Z,1.17
2022-12-11T04:06:24.910Z,1.17
2022-12-11T04:08:53.920Z,1.24
2022-12-11T04:11:35.171Z,1.11
2022-12-11T04:14:25.974Z,1.12
2022-12-11T04:16:53.508Z,1.04
2022-12-11T04:19:39.054Z,1.09
2022-12-11T04:22:14.035Z,1.01
2022-12-11T04:24:42.919Z,1.06
2022-12-11T04:27:09.846Z,0.97
2022-12-11T04:29:41.562Z,1.00
2022-12-11T04:32:08.088Z,1.08
2022-12-11T04:34:36.994Z,1.09
2022-12-11T04:37:03.575Z,1.05
2022-12-11T04:39:32.628Z,1.05
2022-12-11T04:41:59.196Z,1.09
2022-12-11T04:44:31.040Z,0.97
2022-12-11T04:46:57.580Z,0.91
2022-12-11T04:49:26.516Z,1.09
2022-12-11T04:51:58.105Z,1.09
2022-12-11T04:54:29.986Z,0.99
2022-12-11T04:56:56.483Z,1.05
2022-12-11T04:59:25.561Z,1.00
2022-12-11T05:01:52.415Z,1.10
2022-12-11T05:04:19.407Z,1.07
2022-12-11T05:06:46.086Z,0.90
2022-12-11T05:09:17.465Z,1.03
2022-12-11T05:11:44.141Z,0.95
2022-12-11T05:14:10.842Z,1.06
2022-12-11T05:16:39.847Z,0.99
2022-12-11T05:19:11.640Z,0.99
2022-12-11T05:21:43.105Z,1.02
2022-12-11T05:24:17.024Z,0.91
2022-12-11T05:26:43.672Z,0.93
2022-12-11T05:29:10.342Z,0.95
2022-12-11T05:31:37.140Z,0.95
2022-12-11T05:34:08.564Z,0.97
2022-12-11T05:36:35.532Z,1.10
2022-12-11T05:39:03.995Z,1.02
2022-12-11T05:41:36.466Z,1.04
2022-12-11T05:44:03.048Z,0.92
2022-12-11T05:46:33.107Z,0.96
2022-12-11T05:49:02.936Z,0.91
2022-12-11T05:51:30.454Z,0.83
2022-12-11T05:53:59.518Z,0.92
2022-12-11T05:56:32.071Z,0.86
2022-12-11T05:58:59.913Z,0.89
2022-12-11T06:01:29.528Z,0.96
2022-12-11T06:03:57.390Z,0.91
2022-12-11T06:06:24.715Z,0.87
2022-12-11T06:08:55.427Z,0.98
2022-12-11T06:11:24.301Z,0.86
2022-12-11T06:13:54.304Z,0.94
2022-12-11T06:16:21.817Z,0.88
2022-12-11T06:18:48.487Z,0.90
2022-12-11T06:21:20.763Z,0.90
2022-12-11T06:23:52.317Z,0.95
2022-12-11T06:26:24.058Z,0.89
2022-12-11T06:28:50.855Z,0.96
2022-12-11T06:31:22.429Z,0.98
2022-12-11T06:33:51.811Z,0.89
2022-12-11T06:36:21.099Z,0.88
2022-12-11T06:38:51.014Z,0.96
2022-12-11T06:41:21.115Z,0.89
2022-12-11T06:43:50.987Z,0.84
2022-12-11T06:46:20.077Z,0.75
2022-12-11T06:48:49.533Z,0.84
2022-12-11T06:51:21.974Z,0.73
2022-12-11T06:53:56.040Z,0.75
2022-12-11T06:56:28.056Z,0.71
2022-12-11T06:58:55.634Z,0.79
2022-12-11T07:01:27.935Z,0.75
2022-12-11T07:03:56.938Z,0.69
2022-12-11T07:06:27.430Z,0.75
2022-12-11T07:08:56.725Z,0.82
2022-12-11T07:11:23.353Z,0.80
2022-12-11T07:13:55.156Z,0.86
2022-12-11T07:16:29.314Z,0.89
2022-12-11T07:18:58.364Z,0.93
2022-12-11T07:21:25.136Z,0.87
2022-12-11T07:23:54.162Z,0.90
2022-12-11T07:26:22.241Z,0.98
2022-12-11T07:28:51.359Z,0.99
2022-12-11T07:31:30.758Z,0.94
2022-12-11T07:34:05.138Z,0.96
2022-12-11T07:36:32.395Z,1.01
2022-12-11T07:39:02.131Z,1.13
2022-12-11T07:41:37.703Z,1.12
2022-12-11T07:44:06.731Z,1.08
2022-12-11T07:46:34.114Z,1.05
2022-12-11T07:49:07.591Z,1.07
2022-12-11T07:51:36.380Z,1.10
2022-12-11T07:54:09.091Z,1.08
2022-12-11T07:56:35.752Z,1.22
2022-12-11T07:59:04.804Z,1.12
2022-12-11T08:01:35.826Z,1.19
2022-12-11T08:04:07.318Z,1.12
2022-12-11T08:06:36.383Z,1.19
2022-12-11T08:09:06.723Z,1.14
2022-12-11T08:11:38.637Z,1.21
2022-12-11T08:14:08.816Z,1.22
2022-12-11T08:16:39.142Z,1.12
2022-12-11T08:19:05.853Z,1.08
2022-12-11T08:21:34.887Z,1.08
2022-12-11T08:24:03.667Z,1.13
2022-12-11T08:26:32.252Z,1.11
2022-12-11T08:29:00.559Z,1.20
2022-12-11T08:31:29.793Z,1.25
2022-12-11T08:33:56.997Z,1.22
2022-12-11T08:36:26.456Z,1.12
2022-12-11T08:38:58.378Z,1.24
2022-12-11T08:41:27.613Z,1.18
2022-12-11T08:43:55.323Z,1.11
2022-12-11T08:46:27.536Z,1.21
2022-12-11T08:48:55.775Z,1.20
2022-12-11T08:51:30.129Z,1.16
2022-12-11T08:54:01.467Z,1.19
2022-12-11T08:56:32.412Z,1.27
2022-12-11T08:59:06.347Z,1.34
2022-12-11T09:01:33.163Z,1.18
2022-12-11T09:04:02.824Z,1.19
2022-12-11T09:06:31.071Z,1.18
2022-12-11T09:09:02.527Z,1.11
2022-12-11T09:11:40.126Z,1.15
2022-12-11T09:14:08.090Z,1.20
2022-12-11T09:16:40.495Z,1.16
2022-12-11T09:19:15.392Z,1.25
2022-12-11T09:21:43.541Z,1.07
2022-12-11T09:24:12.322Z,1.15
2022-12-11T09:26:42.401Z,1.25
2022-12-11T09:29:13.129Z,1.05
2022-12-11T09:31:42.116Z,1.12
2022-12-11T09:34:11.834Z,1.20
2022-12-11T09:36:42.664Z,1.25
2022-12-11T09:39:11.622Z,1.17
2022-12-11T09:41:59.986Z,1.13
2022-12-11T09:44:32.604Z,1.13
2022-12-11T09:47:02.127Z,1.21
2022-12-11T09:49:45.087Z,1.19
2022-12-11T09:56:34.432Z,1.16
2022-12-11T09:59:40.564Z,1.22
2022-12-11T10:10:29.233Z,1.20
2022-12-11T10:13:08.696Z,1.15
2022-12-11T10:16:10.161Z,1.22
2022-12-11T10:18:55.874Z,1.25
2022-12-11T10:25:33.697Z,1.36
2022-12-11T10:28:14.511Z,1.28
2022-12-11T10:31:06.015Z,1.39
2022-12-11T10:34:00.159Z,1.40
2022-12-11T10:36:29.511Z,1.40
2022-12-11T10:38:58.541Z,1.28
2022-12-11T10:41:36.966Z,1.27
2022-12-11T10:44:15.509Z,1.25
2022-12-11T10:46:44.907Z,1.18
2022-12-11T10:49:26.367Z,1.30
2022-12-11T10:51:57.647Z,1.15
2022-12-11T10:54:29.639Z,1.20
2022-12-11T10:57:00.587Z,1.25
2022-12-11T10:59:33.137Z,1.25
2022-12-11T11:02:00.376Z,1.30
2022-12-11T11:04:33.332Z,1.22
2022-12-11T11:07:11.733Z,1.19
2022-12-11T11:09:39.910Z,1.20
2022-12-11T11:12:30.032Z,1.20
2022-12-11T11:15:27.756Z,1.26
2022-12-11T11:18:16.774Z,1.12
2022-12-11T11:20:48.098Z,1.10
2022-12-11T11:23:17.127Z,1.10
2022-12-11T11:26:01.724Z,1.12
2022-12-11T11:28:33.149Z,1.17
2022-12-11T11:31:05.377Z,1.21
2022-12-11T11:33:36.539Z,1.26
2022-12-11T11:36:20.224Z,1.18
2022-12-11T11:38:58.902Z,1.40
2022-12-11T11:41:29.307Z,1.30
2022-12-11T11:44:09.705Z,1.36
2022-12-11T11:46:44.494Z,1.38
2022-12-11T11:49:42.039Z,1.31
2022-12-11T11:52:15.950Z,1.35
2022-12-11T11:54:53.013Z,1.24
2022-12-11T11:57:49.930Z,1.28
2022-12-11T12:00:24.850Z,1.25
2022-12-11T12:03:18.583Z,1.26
2022-12-11T12:05:50.733Z,1.30
2022-12-11T12:08:41.745Z,1.22
2022-12-11T12:11:39.174Z,1.36
2022-12-11T12:14:51.673Z,1.34
2022-12-11T12:17:24.985Z,1.28
2022-12-11T12:20:10.651Z,1.28
2022-12-11T12:22:55.315Z,1.37
2022-12-11T12:26:05.643Z,1.31
2022-12-11T12:28:45.099Z,1.37
2022-12-11T12:31:13.237Z,1.24
2022-12-11T12:34:00.940Z,1.27
2022-12-11T12:36:41.430Z,1.29
2022-12-11T12:39:29.170Z,1.33
2022-12-11T12:42:40.318Z,1.43
2022-12-11T12:45:15.298Z,1.23
2022-12-11T12:47:53.337Z,1.37
2022-12-11T12:50:28.799Z,1.46
2022-12-11T12:52:58.892Z,1.28
2022-12-11T12:55:28.967Z,1.37
2022-12-11T12:58:05.206Z,1.55
2022-12-11T13:00:34.830Z,1.53
2022-12-11T13:03:16.781Z,1.50
2022-12-11T13:05:58.027Z,1.47
2022-12-11T13:08:27.628Z,1.54
2022-12-11T13:11:04.237Z,1.45
2022-12-11T13:13:42.263Z,1.42
2022-12-11T13:16:17.845Z,1.38
2022-12-11T13:18:47.858Z,1.55
2022-12-11T13:21:29.541Z,1.35
2022-12-11T13:24:14.059Z,1.31
2022-12-11T13:26:41.752Z,1.38
2022-12-11T13:29:40.674Z,1.37
2022-12-11T13:32:10.148Z,1.53
2022-12-11T13:34:44.234Z,1.40
2022-12-11T13:37:33.842Z,1.38
2022-12-11T13:40:08.402Z,1.46
2022-12-11T13:42:43.251Z,1.55
2022-12-11T13:45:29.059Z,1.31
2022-12-11T13:48:01.877Z,1.41
2022-12-11T13:50:31.731Z,1.34
2022-12-11T13:53:01.114Z,1.30
2022-12-11T13:55:36.523Z,1.26
2022-12-11T13:58:03.141Z,1.33
2022-12-11T14:00:32.906Z,1.31
2022-12-11T14:03:04.977Z,1.38
2022-12-11T14:05:31.752Z,1.31
2022-12-11T14:08:11.795Z,1.16
2022-12-11T14:10:42.205Z,1.17
2022-12-11T14:13:25.563Z,1.18
2022-12-11T14:15:53.521Z,1.08
2022-12-11T14:18:29.051Z,1.21
2022-12-11T14:20:57.120Z,1.13
2022-12-11T14:23:25.187Z,1.13
2022-12-11T14:26:00.345Z,1.19
2022-12-11T14:28:29.354Z,1.20
2022-12-11T14:31:01.883Z,1.10
2022-12-11T14:33:33.874Z,1.10
2022-12-11T14:36:03.649Z,1.21
2022-12-11T14:38:38.150Z,1.00
2022-12-11T14:41:20.007Z,0.73
2022-12-11T14:43:51.683Z,0.90
2022-12-11T14:46:23.939Z,0.81
2022-12-11T14:49:02.531Z,0.73
2022-12-11T14:51:35.999Z,0.89
2022-12-11T14:54:05.482Z,0.73
2022-12-11T14:56:32.562Z,0.80
2022-12-11T14:59:19.910Z,0.74
2022-12-11T15:02:17.268Z,0.51
2022-12-11T15:04:44.001Z,0.74
2022-12-11T15:07:20.713Z,0.71
2022-12-11T15:09:49.730Z,0.69
2022-12-11T15:12:20.588Z,0.66
2022-12-11T15:14:52.171Z,0.68
2022-12-11T15:17:22.869Z,0.76
2022-12-11T15:19:55.495Z,0.75
2022-12-11T15:22:26.402Z,0.63
2022-12-11T15:24:54.450Z,0.64
2022-12-11T15:27:37.121Z,0.52
2022-12-11T15:30:29.835Z,0.57
2022-12-11T15:33:19.103Z,0.37
2022-12-11T15:36:02.797Z,0.36
2022-12-11T15:38:42.234Z,0.45
2022-12-11T15:41:15.958Z,0.44
2022-12-11T15:43:44.013Z,0.35
2022-12-11T15:46:12.821Z,0.57
2022-12-11T15:48:39.430Z,0.47
2022-12-11T15:51:06.341Z,0.55
2022-12-11T15:53:37.624Z,0.53
2022-12-11T15:56:04.634Z,0.53
2022-12-11T15:58:34.389Z,0.40
2022-12-11T16:01:03.295Z,0.53
2022-12-11T16:03:32.291Z,0.43
2022-12-11T16:05:58.829Z,0.27
2022-12-11T16:08:25.507Z,0.36
2022-12-11T16:10:56.217Z,0.33
2022-12-11T16:13:23.265Z,0.26
2022-12-11T16:15:51.380Z,0.34
2022-12-11T16:18:24.072Z,0.36
2022-12-11T16:20:53.167Z,0.38
2022-12-11T16:23:22.288Z,0.41
2022-12-11T16:25:49.798Z,0.65
2022-12-11T16:28:21.229Z,0.40
2022-12-11T16:30:48.069Z,0.35
2022-12-11T16:33:14.633Z,0.36
2022-12-11T16:35:43.853Z,0.32
2022-12-11T16:38:13.556Z,0.31
2022-12-11T16:40:42.171Z,0.39
2022-12-11T16:43:10.967Z,0.25
2022-12-11T16:45:37.441Z,0.18
2022-12-11T16:48:05.397Z,0.23
2022-12-11T16:50:32.447Z,0.19
2022-12-11T16:53:01.362Z,0.16
2022-12-11T16:55:30.026Z,0.15
2022-12-11T16:57:59.286Z,0.23
2022-12-11T17:00:25.878Z,0.17
2022-12-11T17:02:52.489Z,0.02
2022-12-11T17:05:19.534Z,0.06
2022-12-11T17:07:46.175Z,0.04
2022-12-11T17:10:12.820Z,0.14
2022-12-11T17:12:44.198Z,0.16
2022-12-11T17:15:13.253Z,0.10
2022-12-11T17:17:43.488Z,0.10
2022-12-11T17:20:13.349Z,-0.02
2022-12-11T17:22:40.024Z,-0.08
2022-12-11T17:25:07.682Z,-0.03
2022-12-11T17:27:39.265Z,-0.02
2022-12-11T17:30:06.348Z,0.03
2022-12-11T17:32:32.828Z,-0.02
2022-12-11T17:34:59.777Z,0.01
2022-12-11T17:37:29.012Z,-0.01
2022-12-11T17:39:55.645Z,0.13
2022-12-11T17:42:25.229Z,0.05
2022-12-11T17:44:54.288Z,-0.04
2022-12-11T17:47:20.928Z,-0.05
2022-12-11T17:49:47.760Z,0.01
2022-12-11T17:52:19.473Z,0.01
2022-12-11T17:54:52.335Z,-0.04
2022-12-11T17:57:19.004Z,-0.05
2022-12-11T17:59:50.285Z,-0.11
2022-12-11T18:02:17.341Z,-0.04
2022-12-11T18:04:47.392Z,-0.06
2022-12-11T18:07:16.237Z,-0.04
2022-12-11T18:09:45.790Z,-0.01
2022-12-11T18:12:17.170Z,0.01
2022-12-11T18:14:43.687Z,-0.07
2022-12-11T18:17:10.268Z,-0.03
2022-12-11T18:19:44.397Z,-0.09
2022-12-11T18:22:12.456Z,-0.10
2022-12-11T18:24:42.319Z,-0.10
2022-12-11T18:27:15.041Z,-0.04
2022-12-11T18:29:41.664Z,-0.05
2022-12-11T18:32:08.232Z,-0.02
2022-12-11T18:34:34.753Z,0.02
2022-12-11T18:37:03.827Z,0.01
2022-12-11T18:39:30.397Z,-0.14
2022-12-11T18:42:30.610Z,0.05
2022-12-11T18:44:46.473Z,-0.04
2022-12-11T18:47:16.174Z,-0.16
2022-12-11T18:49:43.331Z,-0.18
2022-12-11T18:52:12.319Z,-0.14
2022-12-11T18:54:38.970Z,-0.14
2022-12-11T18:57:07.946Z,-0.15
2022-12-11T18:59:34.659Z,-0.26
2022-12-11T19:02:04.159Z,-0.20
2022-12-11T19:04:32.666Z,-0.20
2022-12-11T19:07:00.956Z,-0.31
2022-12-11T19:09:27.644Z,-0.21
2022-12-11T19:11:54.149Z,-0.11
2022-12-11T19:14:21.083Z,-0.21
2022-12-11T19:16:50.944Z,-0.27
2022-12-11T19:19:20.246Z,-0.18
2022-12-11T19:21:47.984Z,-0.29
2022-12-11T19:24:37.529Z,-0.09
2022-12-11T19:27:08.603Z,-0.17
2022-12-11T19:29:38.410Z,-0.32
2022-12-11T19:32:08.172Z,-0.24
2022-12-11T19:34:38.574Z,-0.20
2022-12-11T19:40:31.928Z,-0.30
2022-12-11T19:43:01.665Z,-0.30
2022-12-11T19:46:15.200Z,-0.33
2022-12-11T19:48:15.416Z,-0.32
2022-12-11T19:50:46.896Z,-0.25
2022-12-11T19:53:15.737Z,-0.31
2022-12-11T19:55:52.170Z,-0.31
2022-12-11T19:58:24.034Z,-0.18
2022-12-11T20:00:50.641Z,-0.43
2022-12-11T20:03:17.646Z,-0.33
2022-12-11T20:05:44.263Z,-0.39
2022-12-11T20:10:57.280Z,-0.32
2022-12-11T20:13:26.282Z,-0.45
2022-12-11T20:15:52.887Z,-0.52
2022-12-11T20:18:19.694Z,-0.46
2022-12-11T20:20:46.348Z,-0.44
2022-12-11T20:23:12.885Z,-0.39
2022-12-11T20:25:40.683Z,-0.36
2022-12-11T20:28:07.226Z,-0.50
2022-12-11T20:30:33.898Z,-0.59
2022-12-11T20:33:05.302Z,-0.50
2022-12-11T20:35:31.880Z,-0.49
2022-12-11T20:37:58.470Z,-0.65
2022-12-11T20:40:25.432Z,-0.44
2022-12-11T20:42:52.038Z,-0.53
2022-12-11T20:45:18.960Z,-0.51
2022-12-11T20:47:45.562Z,-0.47
2022-12-11T20:50:17.172Z,-0.29
2022-12-11T20:52:43.690Z,-0.47
2022-12-11T20:55:11.404Z,-0.73
2022-12-11T20:57:43.477Z,-0.57
2022-12-11T21:00:19.185Z,-0.52
2022-12-11T21:02:51.462Z,-0.57
2022-12-11T21:05:25.436Z,-0.68
2022-12-11T21:07:54.392Z,-0.74
2022-12-11T21:10:21.456Z,-0.84
2022-12-11T21:12:50.681Z,-0.76
2022-12-11T21:15:17.293Z,-0.64
2022-12-11T21:17:47.362Z,-0.71
2022-12-11T21:20:16.873Z,-0.54
2022-12-11T21:22:45.537Z,-0.67
2022-12-11T21:25:12.277Z,-0.79
2022-12-11T21:27:39.162Z,-0.64
2022-12-11T21:30:08.379Z,-0.86
2022-12-11T21:32:35.481Z,-0.82
2022-12-11T21:35:03.116Z,-1.02
2022-12-11T21:37:31.897Z,-0.79
2022-12-11T21:40:00.739Z,-0.96
2022-12-11T21:42:29.714Z,-0.69
2022-12-11T21:45:37.592Z,-0.86
2022-12-11T21:47:42.816Z,-0.84
2022-12-11T21:50:09.705Z,-0.59
2022-12-11T21:52:41.031Z,-0.67
2022-12-11T21:55:11.718Z,-0.65
2022-12-11T21:57:40.668Z,-0.72
2022-12-11T22:00:10.738Z,-0.64
2022-12-11T22:02:40.796Z,-0.67
2022-12-11T22:05:08.485Z,-0.89
2022-12-11T22:07:35.002Z,-0.94
2022-12-11T22:10:06.026Z,-0.93
2022-12-11T22:12:41.697Z,-0.92
2022-12-11T22:15:08.656Z,-0.82
2022-12-11T22:17:44.288Z,-0.83
2022-12-11T22:20:11.515Z,-0.67
2022-12-11T22:22:38.099Z,-1.08
2022-12-11T22:25:07.761Z,-1.07
2022-12-11T22:27:45.954Z,-1.11
2022-12-11T22:30:12.892Z,-1.19
2022-12-11T22:32:39.501Z,-1.13
2022-12-11T22:35:06.527Z,-1.34
2022-12-11T22:37:58.853Z,-1.22
2022-12-11T22:40:28.702Z,-0.99
2022-12-11T22:42:58.736Z,-1.17
2022-12-11T22:48:37.654Z,-1.42
2022-12-11T22:51:05.951Z,-1.45
2022-12-11T22:53:34.925Z,-1.35
2022-12-11T22:56:08.002Z,-1.36
2022-12-11T22:58:37.523Z,-1.22
2022-12-11T23:01:10.854Z,-1.16
2022-12-11T23:03:37.903Z,-1.48
2022-12-11T23:06:12.832Z,-1.29
2022-12-11T23:08:41.021Z,-1.07
2022-12-11T23:14:36.559Z,-1.09
2022-12-11T23:17:11.996Z,-1.23
2022-12-11T23:19:40.814Z,-1.21
2022-12-11T23:22:09.672Z,-1.29
2022-12-11T23:24:38.763Z,-1.32
2022-12-11T23:27:10.047Z,-1.78
2022-12-11T23:29:41.428Z,-1.74
2022-12-11T23:32:10.460Z,-1.66
2022-12-11T23:34:37.672Z,-1.66
2022-12-11T23:37:06.749Z,-1.77
2022-12-11T23:39:35.536Z,-1.69
2022-12-11T23:42:02.323Z,-1.59
2022-12-11T23:44:36.904Z,-1.44
2022-12-11T23:47:03.467Z,-1.61
2022-12-11T23:49:30.178Z,-1.47
2022-12-11T23:52:01.539Z,-1.42
2022-12-11T23:54:32.813Z,-1.48
2022-12-11T23:57:04.113Z,-1.61
2022-12-11T23:59:30.802Z,-1.51
